KBLI/BLI METAR and TAF weather

Enter ICAO airport designator
Station Type Date Time Source
KBLI METAR 2020/09/18 18:53 UTC NOAA

KBLI 181853Z 04003KT 1 1/2SM HZ FEW006 OVC047 19/16 A2989 RMK AO2 SLP126 T01890161


Station Type Date Time Source
KBLI Decoded METAR 2020/09/18 18:53 UTC NOAA

BELLINGHAM INTERNATIONAL AIRPORT, WA, United States (KBLI) 48-48N 122-32W 50M
Sep 18, 2020 - 02:53 PM EDT / 2020.09.18 1853 UTC
Wind: from the NE (040 degrees) at 3 MPH (3 KT):0
Visibility: 1 1/2 mile(s):0
Sky conditions: overcast
Weather: haze
Temperature: 66.0 F (18.9 C)
Dew Point: 61.0 F (16.1 C)
Relative Humidity: 83%
Pressure (altimeter): 29.89 in. Hg (1012 hPa)
ob: KBLI 181853Z 04003KT 1 1/2SM HZ FEW006 OVC047 19/16 A2989 RMK AO2 SLP126 T01890161
cycle: 19

Station Type Date Time Source
KBLI TAF 2020/09/18 18:22 UTC NOAA

TAF KBLI 181720Z 1818/1918 00000KT 3SM BR FU SCT003 SCT025 BKN080
TEMPO 1818/1821 1/2SM FG VV002
FM182100 VRB04KT 6SM HZ SCT025 OVC050
TEMPO 1900/1904 3SM -SHRA BR BKN025 OVC050
FM190400 18006KT 5SM -SHRA BR BKN015 OVC040
FM190800 18006KT 5SM BR VCSH OVC015
FM191600 18006KT P6SM VCSH BKN018 OVC030

Example: see airport list